Aeroporto :
LOGIN :

Iscrizione | Disclaimer

   EN    FR    IT 

 










Sommario :    VFR   VFR Marginale   IFR   IFR Intensivo   IFR Molto Intensivo
Visibilità : 
Base nubi : 
>= 8 km
>= 3000ft
5 / 8 km
1000 / 3000 ft
1500m / 5 km
500 / 1000 ft
800 / 1500m
200 / 500 ft
< 800m
< 200 ft
Simboli :   Temporali  Nebbia  Neve Forte  Precipitazioni Forti  Vento > 20 kt
SIGMETs :   Varie  Temporali  Ghiacco  Turbolenza  Onda orograficha  Ceneri Vulcaniche






- Altitudine del aeroporto : 408 ft
- Codice IATA : FKB


EDSB - Karlsruhe Baden Baden

ULTIMO METAR :
  • 030120Z AUTO 19005KT 9999 NCD 01/M03 Q1014

METARs OBSOLETI :
  • 030050Z AUTO 21004KT 9999 NCD 02/M02 Q1014
  • 022350Z AUTO 20004KT 9999 NCD 03/M02 Q1014
  • 022320Z AUTO 19003KT 9999 NCD 03/M02 Q1014
  • 022250Z AUTO 19004KT 9999 NCD 04/M02 Q1014

TAF TAF EDSB
Valido dal 02 a 18 ore il 03 a 18 ore UTC


021700Z 0218/0318 VRB03KT CAVOK
BECMG 0223/0301 21006KT



MetMap, La meteo Aeronautica in un colpo d'occhio ! - Copyright ORBIFLY Dicembre 2007 - Disclaimer

ORBIFLY MET'MAP TEAM :

Programmazione e sviluppo : Alexandra Zaïnal
Concezione : Baudouin d'Aumeries
Aiuto per la programmazione : Marc-Olivier Méhu
Supporto tecnico e logistico : Manuel Goepfert
Aiuto per la traduzione : Arnaldo La Scala

Contatto : metmap@orbifly.com




FONTI E CREDITI :

   NOAA